Flugplatz Herzogenaurach

Für EDQH sind keine METAR/TAF Berichte vorhanden.
Es werden die Flugwettermeldungen vom Flugplatz Nuremberg in 17 km Entfernung angezeigt.

Bericht für EDDN

vom 07.12. um 18:50 UTC

Wind 6 kt aus 110°

Sichtweite 10 km oder mehr

gute Sicht, keine Wolken < 5000 ft, keine CB, keine Wettererscheinungen (CAVOK)

Temperatur -1.0°C

Taupunkt -1.0°C

Luftfeuchtigkeit 100%

Luftdruck 1009 hPa

keine wesentliche Wetteränderung innerhalb den nächsten 2 Stunden zu erwarten

EDDN 071850Z 11006KT CAVOK M01/M01 Q1009 NOSIG

Prognose für EDDN

vom 07.12. um 17:00 UTC

Zwischen 18:00 UTC und 14:00 UTC

Wind 8 kt aus 130°

Sichtweite 10 km oder mehr

keine signifikanten Wettererscheinungen

keine Wolken


Am 08.12. zwischen 04:00 UTC und 08:00 UTC zeitweise mit einer Wahrscheinlichkeit von 30%

Code: FZRA

Schnee


Am 08.12. zwischen 04:00 UTC und 14:00 UTC zeitweise

Sichtweite 4000 m

schwacher Schnee

aufgebrochene Bewölkung in 1200 ft


Am 08.12. zwischen 14:00 und 16:00 UTC übergehend zu

Wind 8 kt aus 130°

Sichtweite 2500 m

schwacher Schnee

aufgelockert bewölkt in 400 ft

bedeckt in 800 ft


Am 08.12. zwischen 16:00 UTC und 18:00 UTC zeitweise

Sichtweite 1000 m

Schnee

aufgebrochene Bewölkung in 400 ft

TAF EDDN 071700Z 0718/0818 13008KT CAVOK TEMPO 0804/0814 4000 -SN BKN012 PROB30 TEMPO 0804/0808 -FZRASN BECMG 0814/0816 2500 -SN SCT004 OVC008 TEMPO 0816/0818 1000 SN BKN004
Impressum